KMTO/MTO METAR and TAF weather

Enter ICAO airport designator
Station Type Date Time Source
KMTO METAR 2020/01/27 11:01 UTC NOAA

KMTO 271101Z AUTO 33008KT 2 1/2SM BR OVC002 M02/M02 A2992 RMK AO2 T10171022


Station Type Date Time Source
KMTO Decoded METAR 2020/01/27 11:01 UTC NOAA

MATTOON/CHARLESTON COLES CO, IL, United States (KMTO) 39-28N 88-16W 214M
Jan 27, 2020 - 06:01 AM EST / 2020.01.27 1101 UTC
Wind: from the NNW (330 degrees) at 9 MPH (8 KT):0
Visibility: 2 1/2 mile(s):0
Sky conditions: overcast
Weather: mist
Temperature: 28.9 F (-1.7 C)
Windchill: 21 F (-6 C):1
Dew Point: 28.0 F (-2.2 C)
Relative Humidity: 96%
Pressure (altimeter): 29.92 in. Hg (1013 hPa)
ob: KMTO 271101Z AUTO 33008KT 2 1/2SM BR OVC002 M02/M02 A2992 RMK AO2 T10171022
cycle: 11

Station Type Date Time Source
KMTO TAF UTC NOAA

Error!

Example: see airport list